Time;durP1;ratioP1;P1;durP2;ratioP2;P2;SDS_P1;SDS_P2;PMS_P1;PMS_P2;Temp;Humidity;BMP_temperature;BMP_pressure;BME280_temperature;BME280_humidity;BME280_pressure;Samples;Min_cycle;Max_cycle;Signal;HPM_P1;HPM_P2
2022/12/17 13:08:03;;;;;;;20.00;14.77;;;1.40;99.90;;;;;;5054096;28;20210;-94
2022/12/17 13:10:32;;;;;;;21.43;18.23;;;1.40;99.90;;;;;;5053911;28;20216;-94
2022/12/17 13:13:11;;;;;;;21.70;15.20;;;1.40;99.90;;;;;;5054192;28;20209;-95
2022/12/17 13:15:44;;;;;;;18.23;14.77;;;1.40;99.90;;;;;;5053792;28;20232;-94
2022/12/17 13:18:23;;;;;;;15.40;13.23;;;1.40;99.90;;;;;;5053777;28;20213;-95
2022/12/17 13:21:01;;;;;;;20.30;14.85;;;1.40;99.90;;;;;;5058310;28;20209;-94
2022/12/17 13:23:33;;;;;;;18.80;13.10;;;1.30;99.90;;;;;;5054493;28;20217;-94
2022/12/17 13:26:23;;;;;;;17.20;13.13;;;1.30;99.90;;;;;;5053608;28;20202;-94
2022/12/17 13:29:01;;;;;;;21.27;14.47;;;1.30;99.90;;;;;;5053079;28;20265;-94
2022/12/17 13:31:41;;;;;;;21.37;13.43;;;1.40;99.90;;;;;;5053887;28;20289;-95
2022/12/17 13:34:17;;;;;;;20.88;14.80;;;1.40;99.90;;;;;;5053409;28;20240;-94
2022/12/17 13:36:55;;;;;;;19.73;15.07;;;1.40;99.90;;;;;;5053639;28;20205;-94
2022/12/17 13:39:34;;;;;;;15.63;13.93;;;1.40;99.90;;;;;;5053114;28;20208;-94
2022/12/17 13:42:06;;;;;;;18.10;14.17;;;1.40;99.90;;;;;;5053369;28;20292;-95
2022/12/17 13:44:40;;;;;;;17.87;14.90;;;1.40;99.90;;;;;;5052712;28;20324;-94
2022/12/17 13:47:20;;;;;;;17.30;12.03;;;1.40;99.90;;;;;;5053467;28;20209;-95
2022/12/17 13:49:52;;;;;;;23.20;14.80;;;1.40;99.90;;;;;;5053575;28;20209;-94
2022/12/17 13:52:41;;;;;;;18.93;14.13;;;1.40;99.90;;;;;;5052838;28;20206;-94
2022/12/17 13:55:17;;;;;;;16.00;13.70;;;1.40;99.90;;;;;;5053713;28;20222;-95
2022/12/17 13:57:46;;;;;;;18.73;14.27;;;1.30;99.90;;;;;;5052784;28;20202;-94
2022/12/17 14:00:21;;;;;;;20.63;13.50;;;1.30;99.90;;;;;;5053073;28;20209;-95
2022/12/17 14:02:50;;;;;;;16.43;13.67;;;1.30;99.90;;;;;;5053097;28;20232;-94
2022/12/17 14:05:26;;;;;;;18.08;14.57;;;1.20;99.90;;;;;;5052401;28;20232;-94
2022/12/17 14:08:02;;;;;;;21.40;13.73;;;1.20;99.90;;;;;;5052676;28;20205;-95
2022/12/17 14:10:30;;;;;;;16.87;13.70;;;1.20;99.90;;;;;;5052962;28;20206;-93
2022/12/17 14:13:03;;;;;;;15.40;13.60;;;1.20;99.90;;;;;;5052872;28;20214;-94
2022/12/17 14:15:32;;;;;;;18.57;12.57;;;1.20;99.90;;;;;;5052909;28;20313;-95
2022/12/17 14:18:01;;;;;;;14.87;13.27;;;1.10;99.90;;;;;;5052302;28;20214;-95
2022/12/17 14:20:32;;;;;;;16.00;13.57;;;1.10;99.90;;;;;;5052926;28;20216;-96
2022/12/17 14:23:04;;;;;;;23.23;15.90;;;1.10;99.90;;;;;;5052593;28;20221;-94
2022/12/17 14:25:39;;;;;;;14.02;12.20;;;1.10;99.90;;;;;;5052965;28;20231;-94
2022/12/17 14:28:22;;;;;;;15.97;12.73;;;1.10;99.90;;;;;;5053016;28;20200;-93
2022/12/17 14:30:51;;;;;;;14.87;13.27;;;1.10;99.90;;;;;;5052600;28;20216;-93
2022/12/17 14:33:39;;;;;;;19.13;13.63;;;1.00;99.90;;;;;;5053205;28;20279;-94
2022/12/17 14:36:15;;;;;;;19.27;14.60;;;1.00;99.90;;;;;;5053138;28;20202;-94
2022/12/17 14:38:53;;;;;;;22.20;14.73;;;1.10;99.90;;;;;;5055391;28;20213;-93
2022/12/17 14:44:20;;;;;;;20.10;15.97;;;1.10;99.90;;;;;;5052337;28;20240;-94
2022/12/17 14:46:49;;;;;;;22.97;16.57;;;1.10;99.90;;;;;;5052556;28;20213;-94
2022/12/17 14:49:20;;;;;;;17.93;14.97;;;1.10;99.90;;;;;;5052960;28;20284;-94
2022/12/17 14:51:50;;;;;;;22.27;16.07;;;1.00;99.90;;;;;;5052786;28;20208;-94
2022/12/17 14:54:28;;;;;;;24.07;16.53;;;1.00;99.90;;;;;;5052763;28;20225;-93
2022/12/17 14:56:58;;;;;;;19.10;15.57;;;1.00;99.90;;;;;;5052849;28;20212;-95
2022/12/17 14:59:31;;;;;;;21.77;16.37;;;1.00;99.90;;;;;;5052436;28;20216;-94
2022/12/17 15:02:02;;;;;;;17.20;14.87;;;1.00;99.90;;;;;;5053285;28;20210;-94
2022/12/17 15:04:32;;;;;;;19.00;15.50;;;0.90;99.90;;;;;;5052903;28;20275;-94
2022/12/17 15:07:00;;;;;;;17.97;15.27;;;0.90;99.90;;;;;;5052632;28;20232;-94
2022/12/17 15:09:30;;;;;;;22.10;17.40;;;0.90;99.90;;;;;;5052990;28;20297;-94
2022/12/17 15:11:58;;;;;;;32.33;20.23;;;0.90;99.90;;;;;;5052618;28;20210;-95
2022/12/17 15:14:27;;;;;;;24.53;18.77;;;0.90;99.90;;;;;;5052807;28;20245;-95
2022/12/17 15:16:57;;;;;;;26.00;17.80;;;0.90;99.90;;;;;;5052670;28;20216;-94
2022/12/17 15:19:26;;;;;;;25.53;18.50;;;0.90;99.90;;;;;;5052937;28;20201;-94
2022/12/17 15:21:54;;;;;;;21.10;17.63;;;0.90;99.90;;;;;;5052844;28;20210;-94
2022/12/17 15:24:22;;;;;;;21.03;15.63;;;0.90;99.90;;;;;;5052625;28;20317;-94
2022/12/17 15:26:52;;;;;;;19.67;16.50;;;0.90;99.90;;;;;;5052654;28;20260;-95
2022/12/17 15:29:21;;;;;;;23.77;17.77;;;0.90;99.90;;;;;;5052730;28;20208;-94
2022/12/17 15:31:49;;;;;;;25.97;18.67;;;0.90;99.90;;;;;;5052612;28;20216;-95
2022/12/17 15:34:17;;;;;;;21.20;17.90;;;0.80;99.90;;;;;;5052411;28;20232;-94
2022/12/17 15:36:46;;;;;;;24.60;17.60;;;0.80;99.90;;;;;;5052478;28;20293;-94
2022/12/17 15:39:14;;;;;;;22.27;17.20;;;0.70;99.90;;;;;;5052735;28;20212;-95
2022/12/17 15:44:29;;;;;;;19.73;15.37;;;0.60;99.90;;;;;;5051746;28;20235;-94
2022/12/17 15:46:58;;;;;;;19.77;15.00;;;0.60;99.90;;;;;;5052391;28;20210;-95
2022/12/17 15:49:26;;;;;;;19.03;14.90;;;0.60;99.90;;;;;;5055008;28;20265;-93
2022/12/17 15:51:54;;;;;;;20.77;15.77;;;0.50;99.90;;;;;;5058021;28;20292;-95
2022/12/17 15:54:24;;;;;;;18.60;14.47;;;0.50;99.90;;;;;;5055922;28;20225;-95
2022/12/17 15:56:53;;;;;;;21.40;15.40;;;0.40;99.90;;;;;;5055512;28;20206;-94
2022/12/17 15:59:22;;;;;;;14.87;13.27;;;0.50;99.90;;;;;;5055721;28;20202;-92
2022/12/17 16:01:52;;;;;;;16.80;13.37;;;0.40;99.90;;;;;;5055684;28;20313;-94
2022/12/17 16:04:20;;;;;;;13.53;11.53;;;0.40;99.90;;;;;;5055895;28;20264;-93
2022/12/17 16:06:52;;;;;;;14.03;10.03;;;0.30;99.90;;;;;;5055384;28;20210;-93
2022/12/17 16:09:23;;;;;;;12.97;10.33;;;0.30;99.90;;;;;;5055549;28;20292;-94
2022/12/17 16:11:54;;;;;;;17.53;11.90;;;0.30;99.90;;;;;;5055353;28;20202;-94
2022/12/17 16:14:22;;;;;;;12.10;10.23;;;0.30;99.90;;;;;;5055678;28;20232;-93
2022/12/17 16:16:52;;;;;;;13.97;10.37;;;0.20;99.90;;;;;;5055440;28;20202;-94
2022/12/17 16:19:24;;;;;;;10.90;9.00;;;0.20;99.90;;;;;;5056000;28;20285;-93
2022/12/17 16:21:52;;;;;;;15.07;10.40;;;0.10;99.90;;;;;;5056483;28;20216;-95
2022/12/17 16:24:21;;;;;;;12.93;9.07;;;0.10;99.90;;;;;;5055498;28;20226;-94
2022/12/17 16:26:50;;;;;;;15.60;8.90;;;0.10;99.90;;;;;;5060156;28;20296;-93
2022/12/17 16:29:18;;;;;;;10.73;8.90;;;0.10;99.90;;;;;;5056881;28;20301;-96
2022/12/17 16:31:47;;;;;;;11.87;9.77;;;0.10;99.90;;;;;;5055390;28;20198;-94
2022/12/17 16:34:17;;;;;;;12.83;9.50;;;0.00;99.90;;;;;;5055051;28;20308;-93
2022/12/17 16:36:45;;;;;;;12.17;9.50;;;0.00;99.90;;;;;;5054817;28;20198;-94
2022/12/17 16:39:16;;;;;;;10.97;8.33;;;0.00;99.90;;;;;;5055208;28;20304;-96
2022/12/17 16:41:45;;;;;;;10.10;7.90;;;0.00;99.90;;;;;;5056082;28;20300;-94
2022/12/17 16:44:13;;;;;;;11.37;8.23;;;0.00;99.90;;;;;;5054927;28;20230;-95
2022/12/17 16:46:45;;;;;;;15.00;9.43;;;0.00;99.90;;;;;;5055511;28;20294;-94
2022/12/17 16:49:18;;;;;;;12.93;8.93;;;0.00;99.90;;;;;;5063594;28;20209;-94
2022/12/17 16:51:51;;;;;;;9.47;7.93;;;0.00;99.90;;;;;;5055255;28;20205;-94
2022/12/17 16:54:21;;;;;;;12.70;8.47;;;0.00;99.90;;;;;;5054778;28;20289;-94
2022/12/17 16:56:50;;;;;;;10.03;7.83;;;0.00;99.90;;;;;;5054650;28;20214;-94
2022/12/17 16:59:19;;;;;;;10.03;8.80;;;0.00;99.90;;;;;;5054666;28;20210;-94
2022/12/17 17:01:50;;;;;;;12.20;9.10;;;0.00;99.90;;;;;;5053943;28;20224;-94
2022/12/17 17:04:22;;;;;;;9.83;8.53;;;0.10;99.90;;;;;;5054525;28;20226;-94
2022/12/17 17:06:53;;;;;;;11.57;8.00;;;0.10;99.90;;;;;;5054254;28;20211;-94
2022/12/17 17:09:22;;;;;;;8.17;7.07;;;0.10;99.90;;;;;;5054540;28;20206;-95
2022/12/17 17:11:51;;;;;;;12.93;8.17;;;0.10;99.90;;;;;;5054620;28;20274;-95
2022/12/17 17:14:20;;;;;;;8.67;7.80;;;0.10;99.90;;;;;;5056530;28;20257;-94
2022/12/17 17:16:48;;;;;;;7.90;6.93;;;0.10;99.90;;;;;;5054820;28;20220;-95
2022/12/17 17:19:17;;;;;;;9.80;7.93;;;0.00;99.90;;;;;;5054634;28;20256;-94
2022/12/17 17:21:51;;;;;;;7.43;6.73;;;0.10;99.90;;;;;;5054453;28;20206;-95
2022/12/17 17:24:22;;;;;;;10.67;7.80;;;0.10;99.90;;;;;;5053921;28;20236;-94
2022/12/17 17:26:52;;;;;;;14.70;8.10;;;0.00;99.90;;;;;;5054866;28;20284;-93
2022/12/17 17:29:21;;;;;;;11.50;7.70;;;0.10;99.90;;;;;;5054538;28;20208;-94
2022/12/17 17:31:49;;;;;;;8.03;7.23;;;0.10;99.90;;;;;;5054857;28;20206;-94
2022/12/17 17:34:38;;;;;;;11.00;7.10;;;0.10;99.90;;;;;;5054252;28;20214;-95
2022/12/17 17:37:07;;;;;;;8.57;7.00;;;0.10;99.90;;;;;;5053937;28;20212;-94
2022/12/17 17:39:36;;;;;;;8.67;7.80;;;0.10;99.90;;;;;;5054161;28;20205;-94
2022/12/17 17:42:05;;;;;;;11.83;8.63;;;0.10;99.90;;;;;;5054071;28;20269;-94
2022/12/17 17:44:33;;;;;;;9.10;7.97;;;0.20;99.90;;;;;;5053820;28;20226;-94
2022/12/17 17:47:02;;;;;;;10.87;8.53;;;0.10;99.90;;;;;;5053740;28;20208;-94
2022/12/17 17:49:30;;;;;;;7.73;6.97;;;0.10;99.90;;;;;;5054129;28;20205;-94
2022/12/17 17:51:58;;;;;;;9.27;6.93;;;0.20;99.90;;;;;;5053708;28;20215;-95
2022/12/17 17:54:44;;;;;;;23.57;8.33;;;0.10;99.90;;;;;;5053528;28;20230;-94
2022/12/17 17:57:12;;;;;;;8.13;7.13;;;0.20;99.90;;;;;;5053339;28;20209;-94
2022/12/17 17:59:41;;;;;;;9.43;7.77;;;0.20;99.90;;;;;;5054030;28;20313;-95
2022/12/17 18:02:10;;;;;;;9.97;8.37;;;0.20;99.90;;;;;;5053959;28;20217;-94
2022/12/17 18:04:39;;;;;;;17.00;9.17;;;0.20;99.90;;;;;;5053220;28;20225;-95
2022/12/17 18:07:08;;;;;;;11.67;8.20;;;0.20;99.90;;;;;;5053248;28;20206;-95
2022/12/17 18:09:54;;;;;;;13.47;9.67;;;0.20;99.90;;;;;;5053821;28;20204;-94
2022/12/17 18:15:09;;;;;;;12.57;8.50;;;0.20;99.90;;;;;;5053518;28;20217;-94
2022/12/17 18:17:44;;;;;;;7.63;6.93;;;0.30;99.90;;;;;;5053168;28;20214;-94
2022/12/17 18:20:13;;;;;;;16.80;9.23;;;0.30;99.90;;;;;;5053505;28;20202;-94
2022/12/17 18:22:42;;;;;;;18.53;8.93;;;0.30;99.90;;;;;;5053345;28;20197;-94
2022/12/17 18:25:12;;;;;;;9.20;8.13;;;0.30;99.90;;;;;;5053345;28;20236;-94
2022/12/17 18:27:41;;;;;;;8.87;7.67;;;0.30;99.90;;;;;;5053205;28;20207;-94
2022/12/17 18:30:10;;;;;;;12.73;8.10;;;0.30;99.90;;;;;;5053409;28;20201;-94
2022/12/17 18:32:38;;;;;;;12.07;8.97;;;0.30;99.90;;;;;;5053631;28;20201;-95
2022/12/17 18:35:08;;;;;;;19.03;10.33;;;0.30;99.90;;;;;;5053791;28;20296;-93
2022/12/17 18:37:36;;;;;;;10.10;8.37;;;0.20;99.90;;;;;;5056415;28;20209;-94
2022/12/17 18:40:06;;;;;;;10.50;9.37;;;0.30;99.90;;;;;;5054175;28;20202;-94
2022/12/17 18:45:21;;;;;;;13.07;9.97;;;0.30;99.90;;;;;;5053025;28;20228;-94
2022/12/17 18:47:51;;;;;;;13.87;9.37;;;0.30;99.90;;;;;;5052757;28;20224;-94
2022/12/17 18:50:19;;;;;;;14.20;7.80;;;0.30;99.90;;;;;;5053251;28;20245;-94
2022/12/17 18:52:48;;;;;;;10.53;7.97;;;0.30;99.90;;;;;;5053344;28;20205;-94
2022/12/17 18:55:18;;;;;;;11.30;9.27;;;0.30;99.90;;;;;;5053006;28;20236;-94
2022/12/17 18:57:48;;;;;;;12.57;10.23;;;0.20;99.90;;;;;;5052551;28;20265;-94
2022/12/17 19:00:17;;;;;;;9.77;8.30;;;0.30;99.90;;;;;;5052852;28;20206;-94
2022/12/17 19:02:45;;;;;;;15.30;11.50;;;0.20;99.90;;;;;;5052663;28;20201;-94
2022/12/17 19:05:14;;;;;;;15.00;9.13;;;0.20;99.90;;;;;;5052442;28;20237;-95
2022/12/17 19:07:42;;;;;;;9.63;7.77;;;0.20;99.90;;;;;;5053283;28;20274;-94
2022/12/17 19:10:11;;;;;;;11.17;8.17;;;0.20;99.90;;;;;;5052971;28;20202;-94
2022/12/17 19:12:39;;;;;;;10.70;8.23;;;0.20;99.90;;;;;;5053157;28;20301;-95
2022/12/17 19:15:10;;;;;;;7.37;6.67;;;0.20;99.90;;;;;;5052697;28;20231;-94
2022/12/17 19:17:38;;;;;;;7.60;6.77;;;0.20;99.90;;;;;;5052564;28;20285;-93
2022/12/17 19:20:08;;;;;;;10.37;7.53;;;0.20;99.90;;;;;;5053346;28;20241;-94
2022/12/17 19:22:36;;;;;;;8.30;7.10;;;0.30;99.90;;;;;;5053655;28;20236;-95
2022/12/17 19:25:05;;;;;;;8.07;7.27;;;0.30;99.90;;;;;;5053553;28;20261;-94
2022/12/17 19:27:34;;;;;;;11.53;8.03;;;0.30;99.90;;;;;;5056586;28;20225;-94
2022/12/17 19:30:02;;;;;;;7.73;6.97;;;0.20;99.90;;;;;;5056844;28;20265;-94
2022/12/17 19:32:32;;;;;;;9.23;7.17;;;0.30;99.90;;;;;;5057326;28;20198;-94
2022/12/17 19:35:01;;;;;;;11.87;8.10;;;0.20;99.90;;;;;;5057122;28;20289;-94
2022/12/17 19:37:29;;;;;;;10.13;7.37;;;0.20;99.90;;;;;;5056920;28;20216;-94
2022/12/17 19:39:58;;;;;;;7.00;6.20;;;0.20;99.90;;;;;;5056604;28;20289;-94
2022/12/17 19:42:27;;;;;;;7.87;7.07;;;0.20;99.90;;;;;;5057050;28;20213;-95
2022/12/17 19:45:04;;;;;;;10.60;7.17;;;0.20;99.90;;;;;;5057029;28;20324;-94
2022/12/17 19:47:34;;;;;;;7.27;6.27;;;0.20;99.90;;;;;;5056686;28;20226;-95
2022/12/17 19:50:03;;;;;;;10.57;6.57;;;0.20;99.90;;;;;;5056822;28;20290;-94
2022/12/17 19:52:31;;;;;;;9.40;6.60;;;0.20;99.90;;;;;;5056840;28;20210;-96
2022/12/17 19:55:00;;;;;;;7.27;5.67;;;0.20;99.90;;;;;;5056519;28;20218;-96
2022/12/17 19:57:29;;;;;;;7.67;6.43;;;0.10;99.90;;;;;;5056866;28;20237;-95
2022/12/17 19:59:57;;;;;;;7.27;5.60;;;0.20;99.90;;;;;;5057735;28;20274;-95
2022/12/17 20:02:26;;;;;;;10.83;7.07;;;0.10;99.90;;;;;;5057567;28;20261;-96
2022/12/17 20:05:01;;;;;;;11.07;6.97;;;0.10;99.90;;;;;;5056353;28;20221;-96
2022/12/17 20:07:29;;;;;;;9.27;6.37;;;0.10;99.90;;;;;;5055811;28;20253;-95
2022/12/17 20:09:58;;;;;;;10.37;6.90;;;0.20;99.90;;;;;;5056534;28;20214;-96
2022/12/17 20:12:26;;;;;;;8.20;6.20;;;0.10;99.90;;;;;;5056168;28;20277;-95
2022/12/17 20:14:55;;;;;;;6.10;5.23;;;0.00;99.90;;;;;;5056593;28;20221;-96
2022/12/17 20:17:24;;;;;;;6.73;6.03;;;0.10;99.90;;;;;;5055914;28;20297;-95
2022/12/17 20:19:55;;;;;;;7.47;5.93;;;0.20;99.90;;;;;;5056370;28;20209;-96
2022/12/17 20:22:26;;;;;;;6.63;5.77;;;0.10;99.90;;;;;;5055836;28;20289;-95
2022/12/17 20:24:54;;;;;;;7.60;6.03;;;0.10;99.90;;;;;;5054855;28;20225;-87
2022/12/17 20:27:23;;;;;;;10.20;7.13;;;0.10;99.90;;;;;;5054789;28;20229;-88
2022/12/17 20:29:51;;;;;;;6.97;5.90;;;0.20;99.90;;;;;;5055267;28;20206;-88
2022/12/17 20:32:20;;;;;;;11.60;6.80;;;0.10;99.90;;;;;;5055365;28;20214;-87
2022/12/17 20:34:48;;;;;;;8.50;5.83;;;0.20;99.90;;;;;;5054822;28;20236;-87
2022/12/17 20:37:16;;;;;;;7.27;6.13;;;0.20;99.90;;;;;;5053621;28;20198;-87
2022/12/17 20:39:46;;;;;;;12.70;8.87;;;0.20;99.90;;;;;;5054776;28;20297;-85
2022/12/17 20:42:16;;;;;;;12.70;8.90;;;0.20;99.90;;;;;;5054791;28;20213;-87
2022/12/17 20:44:44;;;;;;;8.43;7.10;;;0.20;99.90;;;;;;5054489;28;20229;-86
2022/12/17 20:47:20;;;;;;;11.50;8.93;;;0.20;99.90;;;;;;5054306;28;20221;-86
2022/12/17 20:49:48;;;;;;;14.90;8.90;;;0.10;99.90;;;;;;5054666;28;20229;-86
2022/12/17 20:52:16;;;;;;;29.70;18.43;;;0.20;99.90;;;;;;5054510;28;20212;-86
2022/12/17 20:54:48;;;;;;;13.43;9.87;;;0.20;99.90;;;;;;5054366;28;20245;-86
2022/12/17 20:57:16;;;;;;;13.27;9.30;;;0.20;99.90;;;;;;5054214;28;20210;-86
2022/12/17 20:59:44;;;;;;;7.63;5.70;;;0.20;99.90;;;;;;5054365;28;20234;-86
2022/12/17 21:02:12;;;;;;;10.23;7.63;;;0.20;99.90;;;;;;5054276;28;20224;-86
2022/12/17 21:04:41;;;;;;;8.83;7.13;;;0.20;99.90;;;;;;5054226;28;20222;-86
2022/12/17 21:07:09;;;;;;;9.07;6.77;;;0.20;99.90;;;;;;5053499;28;20225;-86
2022/12/17 21:09:37;;;;;;;6.30;5.17;;;0.20;99.90;;;;;;5054624;28;20241;-86
2022/12/17 21:12:08;;;;;;;6.27;4.67;;;0.20;99.90;;;;;;5054027;28;20236;-86
2022/12/17 21:14:36;;;;;;;5.00;4.50;;;0.30;99.90;;;;;;5054193;28;20229;-86
2022/12/17 21:17:04;;;;;;;6.13;4.97;;;0.20;99.90;;;;;;5053709;28;20202;-86
2022/12/17 21:19:33;;;;;;;6.57;5.20;;;0.20;99.90;;;;;;5054131;28;20198;-86
2022/12/17 21:22:01;;;;;;;4.53;4.13;;;0.20;99.90;;;;;;5053902;28;20220;-86
2022/12/17 21:24:29;;;;;;;5.03;4.57;;;0.20;99.90;;;;;;5053955;28;20312;-86
2022/12/17 21:26:57;;;;;;;7.10;5.33;;;0.20;99.90;;;;;;5053419;28;20228;-86
2022/12/17 21:29:27;;;;;;;5.77;5.17;;;0.20;99.90;;;;;;5053770;28;20213;-87
2022/12/17 21:31:55;;;;;;;5.13;4.57;;;0.20;99.90;;;;;;5053566;28;20209;-87
2022/12/17 21:34:28;;;;;;;4.67;4.27;;;0.10;99.90;;;;;;5054547;28;20232;-87
2022/12/17 21:36:56;;;;;;;5.27;4.57;;;0.20;99.90;;;;;;5053742;28;20244;-87
2022/12/17 21:39:24;;;;;;;5.73;4.67;;;0.20;99.90;;;;;;5053674;28;20208;-87
2022/12/17 21:44:40;;;;;;;5.87;3.77;;;0.20;99.90;;;;;;5053363;28;20229;-87
2022/12/17 21:47:08;;;;;;;5.33;4.83;;;0.20;99.90;;;;;;5053071;28;20237;-88
2022/12/17 21:49:36;;;;;;;8.03;4.77;;;0.20;99.90;;;;;;5053257;28;20216;-86
2022/12/17 21:52:05;;;;;;;4.27;3.93;;;0.20;99.90;;;;;;5053732;28;20213;-88
2022/12/17 21:54:36;;;;;;;6.10;4.63;;;0.20;99.90;;;;;;5053356;28;20243;-88
2022/12/17 21:57:05;;;;;;;5.00;4.37;;;0.20;99.90;;;;;;5052700;28;20206;-86
2022/12/17 21:59:33;;;;;;;6.43;4.27;;;0.20;99.90;;;;;;5053563;28;20213;-87
2022/12/17 22:02:03;;;;;;;5.63;3.77;;;0.20;99.90;;;;;;5053270;28;20213;-87
2022/12/17 22:04:32;;;;;;;3.93;3.57;;;0.20;99.90;;;;;;5053097;28;20232;-87
2022/12/17 22:07:00;;;;;;;4.23;3.83;;;0.20;99.90;;;;;;5052432;28;20210;-86
2022/12/17 22:09:48;;;;;;;3.63;3.33;;;0.20;99.90;;;;;;5053186;28;20255;-87
2022/12/17 22:15:23;;;;;;;4.20;3.33;;;0.20;99.90;;;;;;5052950;28;20225;-86
2022/12/17 22:17:59;;;;;;;4.30;3.93;;;0.20;99.90;;;;;;5053131;28;20229;-87
2022/12/17 22:20:28;;;;;;;4.77;4.27;;;0.20;99.90;;;;;;5053017;28;20225;-87
2022/12/17 22:22:56;;;;;;;4.27;3.87;;;0.20;99.90;;;;;;5053135;28;20205;-86
2022/12/17 22:25:25;;;;;;;5.53;4.33;;;0.20;99.90;;;;;;5052883;28;20293;-87
2022/12/17 22:27:53;;;;;;;4.07;3.70;;;0.20;99.90;;;;;;5052178;28;20229;-87
2022/12/17 22:33:09;;;;;;;9.47;4.70;;;0.30;99.90;;;;;;5052730;28;20202;-87
2022/12/17 22:36:01;;;;;;;5.27;3.97;;;0.20;99.90;;;;;;5052626;28;20216;-87
2022/12/17 22:38:49;;;;;;;4.27;3.53;;;0.20;99.90;;;;;;5052898;28;20201;-87
2022/12/17 22:44:43;;;;;;;3.93;3.40;;;0.10;99.90;;;;;;5051952;28;20279;-87
2022/12/17 22:47:23;;;;;;;4.80;3.60;;;0.10;99.90;;;;;;5050135;28;20223;-87
2022/12/17 22:49:52;;;;;;;4.43;3.93;;;0.10;99.90;;;;;;5050258;28;20217;-86
2022/12/17 22:52:21;;;;;;;3.13;2.83;;;0.10;99.90;;;;;;5050277;28;20214;-87
2022/12/17 22:54:50;;;;;;;9.90;4.67;;;0.20;99.90;;;;;;5049499;28;20260;-87
2022/12/17 22:57:18;;;;;;;5.80;5.23;;;0.20;99.90;;;;;;5050116;28;20316;-87
2022/12/17 23:00:09;;;;;;;4.30;3.90;;;0.20;99.90;;;;;;5050831;28;20217;-86
2022/12/17 23:02:37;;;;;;;6.07;4.33;;;0.20;99.90;;;;;;5054654;28;20220;-86
2022/12/17 23:05:08;;;;;;;5.33;4.23;;;0.20;99.90;;;;;;5053481;28;20233;-86
2022/12/17 23:07:36;;;;;;;4.63;4.23;;;0.20;99.90;;;;;;5053868;28;20232;-86
2022/12/17 23:10:05;;;;;;;4.00;3.60;;;0.20;99.90;;;;;;5054416;28;20292;-87
2022/12/17 23:12:53;;;;;;;3.90;3.50;;;0.10;99.90;;;;;;5054711;28;20215;-87
2022/12/17 23:15:25;;;;;;;3.97;3.63;;;0.10;99.90;;;;;;5053597;28;20225;-87
2022/12/17 23:17:55;;;;;;;5.37;4.00;;;0.10;99.90;;;;;;5053877;28;20216;-87
2022/12/17 23:20:26;;;;;;;4.73;4.23;;;0.10;99.90;;;;;;5054039;28;20209;-87
2022/12/17 23:22:55;;;;;;;4.70;4.17;;;0.10;99.90;;;;;;5054165;28;20296;-87
2022/12/17 23:25:24;;;;;;;4.27;3.97;;;0.00;99.90;;;;;;5053869;28;20228;-86
2022/12/17 23:27:53;;;;;;;5.63;3.93;;;0.00;99.90;;;;;;5053413;28;20225;-86
2022/12/17 23:30:22;;;;;;;4.67;4.23;;;0.00;99.90;;;;;;5054020;28;20209;-87
2022/12/17 23:32:50;;;;;;;4.70;3.50;;;0.00;99.90;;;;;;5053581;28;20210;-87
2022/12/17 23:35:19;;;;;;;6.10;4.30;;;-0.10;99.90;;;;;;5053686;28;20230;-89
2022/12/17 23:37:49;;;;;;;4.77;4.27;;;-0.10;99.90;;;;;;5053359;28;20208;-86
2022/12/17 23:40:17;;;;;;;6.47;4.97;;;-0.10;99.90;;;;;;5054061;28;20206;-87
2022/12/17 23:42:46;;;;;;;4.97;4.47;;;-0.10;99.90;;;;;;5054035;28;20217;-87
2022/12/17 23:45:14;;;;;;;4.97;4.40;;;-0.10;99.90;;;;;;5053077;28;20209;-87
2022/12/17 23:47:42;;;;;;;8.77;4.60;;;-0.10;99.90;;;;;;5053228;28;20221;-87
2022/12/17 23:50:11;;;;;;;4.93;4.43;;;-0.10;99.90;;;;;;5053626;28;20218;-87
2022/12/17 23:52:39;;;;;;;4.73;4.30;;;-0.10;99.90;;;;;;5053285;28;20210;-87
2022/12/17 23:55:10;;;;;;;5.50;4.33;;;-0.10;99.90;;;;;;5053065;28;20226;-87
2022/12/17 23:57:38;;;;;;;4.57;4.07;;;-0.10;99.90;;;;;;5052782;28;20301;-87
